createdAt,value
2019-01-30T00:01:35.062Z,98638.27
2019-01-30T00:04:03.875Z,98629.14
2019-01-30T00:06:32.585Z,98619.78
2019-01-30T00:09:01.205Z,98618.76
2019-01-30T00:11:29.895Z,98615.16
2019-01-30T00:13:58.498Z,98613.80
2019-01-30T00:16:27.202Z,98605.05
2019-01-30T00:18:55.824Z,98609.67
2019-01-30T00:21:24.450Z,98606.47
2019-01-30T00:23:53.080Z,98595.79
2019-01-30T00:26:21.786Z,98599.14
2019-01-30T00:28:50.417Z,98589.93
2019-01-30T00:31:19.033Z,98587.61
2019-01-30T00:33:47.753Z,98587.69
2019-01-30T00:36:16.361Z,98584.71
2019-01-30T00:38:45.046Z,98581.21
2019-01-30T00:41:13.732Z,98575.97
2019-01-30T00:43:42.343Z,98568.28
2019-01-30T00:46:11.011Z,98567.95
2019-01-30T00:48:39.802Z,98563.70
2019-01-30T00:51:08.448Z,98564.15
2019-01-30T00:53:37.055Z,98559.91
2019-01-30T00:56:05.943Z,98556.44
2019-01-30T00:58:34.550Z,98544.52
2019-01-30T01:01:03.214Z,98546.51
2019-01-30T01:03:31.906Z,98543.73
2019-01-30T01:06:00.581Z,98540.38
2019-01-30T01:08:29.297Z,98533.78
2019-01-30T01:10:57.999Z,98539.88
2019-01-30T01:13:26.688Z,98535.00
2019-01-30T01:15:55.303Z,98530.66
2019-01-30T01:18:24.005Z,98523.55
2019-01-30T01:20:52.677Z,98516.59
2019-01-30T01:23:21.338Z,98525.13
2019-01-30T01:25:49.929Z,98520.42
2019-01-30T01:28:18.555Z,98519.59
2019-01-30T01:31:06.393Z,98517.61
2019-01-30T01:33:35.066Z,98507.27
2019-01-30T01:36:03.854Z,98509.90
2019-01-30T01:38:32.519Z,98507.66
2019-01-30T01:41:01.183Z,98507.30
2019-01-30T01:43:49.019Z,98499.28
2019-01-30T01:46:17.664Z,98493.34
2019-01-30T01:48:46.449Z,98489.29
2019-01-30T01:51:15.118Z,98485.58
2019-01-30T01:53:43.744Z,98478.03
2019-01-30T01:56:12.412Z,98474.87
2019-01-30T01:58:41.078Z,98471.55
2019-01-30T02:01:09.700Z,98469.81
2019-01-30T02:03:38.370Z,98459.22
2019-01-30T02:06:07.065Z,98452.17
2019-01-30T02:08:35.671Z,98450.89
2019-01-30T02:11:04.376Z,98445.00
2019-01-30T02:13:32.993Z,98443.16
2019-01-30T02:16:01.606Z,98432.05
2019-01-30T02:18:30.229Z,98426.92
2019-01-30T02:20:58.906Z,98426.59
2019-01-30T02:23:27.538Z,98419.23
2019-01-30T02:25:56.175Z,98410.36
2019-01-30T02:28:24.800Z,98405.23
2019-01-30T02:30:53.419Z,98401.16
2019-01-30T02:33:22.021Z,98397.84
2019-01-30T02:35:50.663Z,98387.23
2019-01-30T02:38:19.275Z,98385.03
2019-01-30T02:40:47.893Z,98382.66
2019-01-30T02:43:16.509Z,98373.98
2019-01-30T02:45:45.208Z,98369.36
2019-01-30T02:48:13.815Z,98361.47
2019-01-30T02:50:42.535Z,98359.66
2019-01-30T02:53:11.136Z,98355.91
2019-01-30T02:55:39.838Z,98355.77
2019-01-30T02:58:08.443Z,98350.70
2019-01-30T03:03:12.726Z,98345.41
2019-01-30T03:05:41.365Z,98343.00
2019-01-30T03:08:10.057Z,98342.84
2019-01-30T03:10:38.667Z,98340.36
2019-01-30T03:13:07.359Z,98344.64
2019-01-30T03:15:36.010Z,98341.88
2019-01-30T03:18:05.066Z,98339.44
2019-01-30T03:20:33.711Z,98331.21
2019-01-30T03:23:02.365Z,98326.69
2019-01-30T03:25:30.989Z,98321.73
2019-01-30T03:27:59.661Z,98319.41
2019-01-30T03:30:29.986Z,98321.19
2019-01-30T03:32:59.016Z,98323.73
2019-01-30T03:35:29.075Z,98321.00
2019-01-30T03:37:57.705Z,98320.06
2019-01-30T03:40:26.491Z,98312.97
2019-01-30T03:42:55.269Z,98310.69
2019-01-30T03:45:24.147Z,98317.63
2019-01-30T03:47:52.929Z,98320.94
2019-01-30T03:50:21.738Z,98315.13
2019-01-30T03:52:50.553Z,98306.93
2019-01-30T03:55:19.269Z,98301.75
2019-01-30T03:57:48.164Z,98299.80
2019-01-30T04:03:31.770Z,98296.23
2019-01-30T04:06:19.719Z,98294.42
2019-01-30T04:08:48.316Z,98296.48
2019-01-30T04:11:17.023Z,98300.37
2019-01-30T04:13:45.655Z,98304.45
2019-01-30T04:16:14.259Z,98297.88
2019-01-30T04:18:42.913Z,98294.73
2019-01-30T04:21:11.498Z,98289.91
2019-01-30T04:23:40.151Z,98292.11
2019-01-30T04:26:12.907Z,98283.89
2019-01-30T04:28:41.567Z,98285.89
2019-01-30T04:31:10.228Z,98286.25
2019-01-30T04:33:38.910Z,98280.44
2019-01-30T04:36:07.514Z,98278.37
2019-01-30T04:38:36.493Z,98284.72
2019-01-30T04:41:05.199Z,98277.25
2019-01-30T04:43:34.056Z,98262.02
2019-01-30T04:46:02.706Z,98262.98
2019-01-30T04:48:31.377Z,98259.12
2019-01-30T04:50:59.996Z,98261.13
2019-01-30T04:53:28.696Z,98259.12
2019-01-30T04:55:57.307Z,98257.88
2019-01-30T04:58:26.010Z,98252.31
2019-01-30T05:00:54.626Z,98251.30
2019-01-30T05:03:24.579Z,98253.83
2019-01-30T05:05:53.740Z,98257.81
2019-01-30T05:08:22.371Z,98263.27
2019-01-30T05:10:51.065Z,98261.89
2019-01-30T05:13:19.801Z,98262.45
2019-01-30T05:15:48.458Z,98265.52
2019-01-30T05:18:17.096Z,98260.34
2019-01-30T05:20:45.807Z,98259.52
2019-01-30T05:23:14.441Z,98252.88
2019-01-30T05:25:43.057Z,98253.93
2019-01-30T05:28:11.774Z,98247.48
2019-01-30T05:30:40.539Z,98235.91
2019-01-30T05:33:30.403Z,98228.27
2019-01-30T05:35:59.020Z,98238.88
2019-01-30T05:38:27.652Z,98241.65
2019-01-30T05:40:56.308Z,98241.19
2019-01-30T05:43:24.930Z,98239.77
2019-01-30T05:45:53.556Z,98232.30
2019-01-30T05:48:22.152Z,98227.30
2019-01-30T05:51:05.708Z,98239.32
2019-01-30T05:53:34.275Z,98245.24
2019-01-30T05:56:02.934Z,98242.61
2019-01-30T05:58:31.538Z,98238.83
2019-01-30T06:01:00.207Z,98232.57
2019-01-30T06:03:28.885Z,98228.66
2019-01-30T06:05:57.530Z,98231.68
2019-01-30T06:08:26.141Z,98226.55
2019-01-30T06:10:54.785Z,98219.95
2019-01-30T06:13:23.425Z,98219.55
2019-01-30T06:15:52.123Z,98220.50
2019-01-30T06:18:20.725Z,98214.28
2019-01-30T06:20:49.365Z,98216.56
2019-01-30T06:23:18.076Z,98210.66
2019-01-30T06:25:46.784Z,98206.80
2019-01-30T06:28:15.407Z,98205.41
2019-01-30T06:30:44.146Z,98206.11
2019-01-30T06:33:12.769Z,98208.55
2019-01-30T06:35:41.479Z,98210.35
2019-01-30T06:38:10.143Z,98219.77
2019-01-30T06:40:38.888Z,98212.76
2019-01-30T06:43:07.490Z,98211.03
2019-01-30T06:45:36.191Z,98199.88
2019-01-30T06:48:25.607Z,98208.14
2019-01-30T06:50:54.303Z,98197.34
2019-01-30T06:53:22.908Z,98205.20
2019-01-30T06:55:51.571Z,98196.28
2019-01-30T06:58:20.319Z,98198.72
2019-01-30T07:00:48.942Z,98201.29
2019-01-30T07:03:17.558Z,98203.83
2019-01-30T07:05:46.205Z,98197.54
2019-01-30T07:08:14.913Z,98192.96
2019-01-30T07:10:43.565Z,98199.88
2019-01-30T07:13:12.177Z,98195.37
2019-01-30T07:15:40.977Z,98191.16
2019-01-30T07:18:09.636Z,98190.75
2019-01-30T07:20:38.358Z,98187.41
2019-01-30T07:23:07.057Z,98186.31
2019-01-30T07:25:36.927Z,98190.05
2019-01-30T07:28:06.126Z,98182.84
2019-01-30T07:30:36.324Z,98185.70
2019-01-30T07:33:25.781Z,98184.88
2019-01-30T07:35:54.477Z,98188.46
2019-01-30T07:38:23.107Z,98184.58
2019-01-30T07:40:51.728Z,98190.28
2019-01-30T07:43:22.864Z,98195.05
2019-01-30T07:45:50.799Z,98191.36
2019-01-30T07:48:19.425Z,98188.86
2019-01-30T07:50:48.129Z,98190.88
2019-01-30T07:53:16.744Z,98182.22
2019-01-30T07:55:45.397Z,98184.86
2019-01-30T07:58:14.013Z,98180.34
2019-01-30T08:00:42.724Z,98187.09
2019-01-30T08:03:11.347Z,98185.48
2019-01-30T08:05:39.989Z,98194.98
2019-01-30T08:08:08.746Z,98195.19
2019-01-30T08:10:37.398Z,98187.42
2019-01-30T08:13:06.307Z,98183.73
2019-01-30T08:15:34.908Z,98178.97
2019-01-30T08:18:03.531Z,98174.89
2019-01-30T08:20:32.154Z,98176.08
2019-01-30T08:23:00.791Z,98173.38
2019-01-30T08:25:29.575Z,98179.27
2019-01-30T08:27:58.660Z,98182.92
2019-01-30T08:30:29.451Z,98187.09
2019-01-30T08:33:04.656Z,98189.63
2019-01-30T08:35:52.424Z,98189.98
2019-01-30T08:38:21.117Z,98188.05
2019-01-30T08:40:49.829Z,98197.38
2019-01-30T08:43:18.453Z,98197.55
2019-01-30T08:45:47.160Z,98195.05
2019-01-30T08:48:15.785Z,98197.81
2019-01-30T08:50:44.438Z,98193.86
2019-01-30T08:53:13.140Z,98190.66
2019-01-30T08:55:41.871Z,98189.45
2019-01-30T08:58:10.537Z,98195.60
2019-01-30T09:00:39.143Z,98194.75
2019-01-30T09:03:14.519Z,98183.83
2019-01-30T09:05:38.270Z,98189.72
2019-01-30T09:08:08.929Z,98185.56
2019-01-30T09:10:37.489Z,98187.77
2019-01-30T09:13:06.359Z,98186.45
2019-01-30T09:15:35.001Z,98191.17
2019-01-30T09:18:03.795Z,98185.36
2019-01-30T09:20:32.434Z,98182.38
2019-01-30T09:23:01.076Z,98186.80
2019-01-30T09:25:30.492Z,98185.27
2019-01-30T09:28:00.367Z,98185.89
2019-01-30T09:30:31.424Z,98177.91
2019-01-30T09:33:00.221Z,98183.45
2019-01-30T09:35:28.961Z,98187.95
2019-01-30T09:37:57.662Z,98187.05
2019-01-30T09:40:26.543Z,98190.44
2019-01-30T09:42:55.271Z,98181.56
2019-01-30T09:48:38.295Z,98185.51
2019-01-30T09:51:06.957Z,98191.39
2019-01-30T09:53:35.617Z,98185.63
2019-01-30T09:56:04.338Z,98182.62
2019-01-30T09:58:32.926Z,98189.59
2019-01-30T10:01:01.698Z,98186.17
2019-01-30T10:03:36.395Z,98184.23
2019-01-30T10:06:00.784Z,98184.00
2019-01-30T10:08:29.486Z,98177.94
2019-01-30T10:10:58.184Z,98189.52
2019-01-30T10:13:26.834Z,98185.60
2019-01-30T10:15:55.479Z,98187.87
2019-01-30T10:18:24.516Z,98193.47
2019-01-30T10:20:53.201Z,98190.01
2019-01-30T10:23:21.888Z,98187.49
2019-01-30T10:25:50.504Z,98184.53
2019-01-30T10:28:19.131Z,98182.62
2019-01-30T10:30:47.896Z,98179.73
2019-01-30T10:35:52.283Z,98193.83
2019-01-30T10:38:21.040Z,98188.81
2019-01-30T10:40:49.715Z,98190.95
2019-01-30T10:43:18.426Z,98183.05
2019-01-30T10:45:47.152Z,98186.50
2019-01-30T10:48:15.851Z,98187.61
2019-01-30T10:50:44.575Z,98188.77
2019-01-30T10:53:13.272Z,98184.05
2019-01-30T10:55:41.968Z,98188.70
2019-01-30T10:58:13.664Z,98186.45
2019-01-30T11:00:44.656Z,98191.58
2019-01-30T11:03:13.348Z,98188.14
2019-01-30T11:05:44.251Z,98188.23
2019-01-30T11:08:12.521Z,98185.39
2019-01-30T11:10:41.212Z,98183.86
2019-01-30T11:13:10.026Z,98184.45
2019-01-30T11:15:38.716Z,98181.61
2019-01-30T11:21:25.601Z,98172.59
2019-01-30T11:23:54.238Z,98175.34
2019-01-30T11:26:22.881Z,98174.84
2019-01-30T11:28:51.568Z,98177.91
2019-01-30T11:31:20.320Z,98171.41
2019-01-30T11:33:48.925Z,98168.45
2019-01-30T11:36:17.541Z,98171.70
2019-01-30T11:38:46.231Z,98169.70
2019-01-30T11:41:14.857Z,98166.97
2019-01-30T11:43:43.485Z,98171.15
2019-01-30T11:46:12.134Z,98168.49
2019-01-30T11:48:40.780Z,98164.11
2019-01-30T11:51:09.553Z,98165.13
2019-01-30T11:53:38.263Z,98166.16
2019-01-30T11:56:07.064Z,98162.72
2019-01-30T11:58:35.713Z,98160.87
2019-01-30T12:01:04.965Z,98164.02
2019-01-30T12:03:33.790Z,98160.34
2019-01-30T12:06:02.455Z,98153.66
2019-01-30T12:08:31.241Z,98155.66
2019-01-30T12:10:59.884Z,98147.36
2019-01-30T12:13:28.741Z,98150.58
2019-01-30T12:15:57.464Z,98145.11
2019-01-30T12:18:26.073Z,98142.98
2019-01-30T12:20:54.722Z,98135.48
2019-01-30T12:23:23.409Z,98135.61
2019-01-30T12:25:52.128Z,98139.73
2019-01-30T12:28:20.799Z,98138.25
2019-01-30T12:30:49.531Z,98139.77
2019-01-30T12:33:18.518Z,98139.05
2019-01-30T12:35:47.241Z,98136.95
2019-01-30T12:38:15.932Z,98135.64
2019-01-30T12:40:44.551Z,98132.05
2019-01-30T12:43:13.268Z,98144.67
2019-01-30T12:45:41.984Z,98136.03
2019-01-30T12:48:11.016Z,98134.96
2019-01-30T12:50:41.228Z,98133.14
2019-01-30T12:53:09.932Z,98130.23
2019-01-30T12:55:38.847Z,98125.58
2019-01-30T12:58:07.531Z,98133.97
2019-01-30T13:00:55.384Z,98132.75
2019-01-30T13:03:24.014Z,98135.64
2019-01-30T13:05:52.746Z,98127.84
2019-01-30T13:08:21.356Z,98134.42
2019-01-30T13:10:50.069Z,98139.89
2019-01-30T13:13:18.701Z,98130.95
2019-01-30T13:15:47.427Z,98131.57
2019-01-30T13:18:18.629Z,98138.88
2019-01-30T13:20:46.481Z,98134.22
2019-01-30T13:23:15.192Z,98129.57
2019-01-30T13:25:43.822Z,98125.90
2019-01-30T13:28:12.500Z,98137.17
2019-01-30T13:30:43.642Z,98132.20
2019-01-30T13:33:12.141Z,98137.25
2019-01-30T13:35:40.867Z,98143.06
2019-01-30T13:38:09.573Z,98140.42
2019-01-30T13:40:40.049Z,98140.84
2019-01-30T13:43:48.451Z,98146.72
2019-01-30T13:46:17.152Z,98150.46
2019-01-30T13:48:45.815Z,98147.63
2019-01-30T13:51:14.474Z,98146.02
2019-01-30T13:53:43.143Z,98146.41
2019-01-30T13:56:11.806Z,98158.50
2019-01-30T13:58:42.676Z,98157.57
2019-01-30T14:01:17.192Z,98154.22
2019-01-30T14:03:41.329Z,98160.13
2019-01-30T14:06:10.016Z,98166.91
2019-01-30T14:08:38.746Z,98166.91
2019-01-30T14:11:07.398Z,98165.21
2019-01-30T14:13:36.028Z,98175.75
2019-01-30T14:16:04.963Z,98182.14
2019-01-30T14:18:33.589Z,98184.60
2019-01-30T14:21:02.194Z,98176.47
2019-01-30T14:23:30.794Z,98184.30
2019-01-30T14:25:59.460Z,98191.31
2019-01-30T14:28:28.069Z,98192.63
2019-01-30T14:30:56.794Z,98190.59
2019-01-30T14:33:25.450Z,98203.67
2019-01-30T14:35:54.213Z,98211.37
2019-01-30T14:38:42.003Z,98204.44
2019-01-30T14:41:10.730Z,98209.36
2019-01-30T14:43:39.444Z,98211.30
2019-01-30T14:46:08.207Z,98208.42
2019-01-30T14:48:36.826Z,98218.88
2019-01-30T14:51:05.551Z,98220.67
2019-01-30T14:53:34.305Z,98222.52
2019-01-30T14:56:02.968Z,98224.98
2019-01-30T14:58:31.736Z,98225.00
2019-01-30T15:01:19.366Z,98232.67
2019-01-30T15:03:47.994Z,98230.38
2019-01-30T15:06:16.607Z,98235.72
2019-01-30T15:08:45.258Z,98236.59
2019-01-30T15:11:13.886Z,98242.43
2019-01-30T15:13:42.584Z,98248.25
2019-01-30T15:16:11.278Z,98245.48
2019-01-30T15:18:40.031Z,98244.03
2019-01-30T15:21:08.704Z,98248.37
2019-01-30T15:23:37.368Z,98250.34
2019-01-30T15:26:06.041Z,98253.39
2019-01-30T15:28:34.714Z,98267.63
2019-01-30T15:31:03.324Z,98262.69
2019-01-30T15:33:31.982Z,98267.09
2019-01-30T15:36:00.586Z,98270.11
2019-01-30T15:38:29.273Z,98278.90
2019-01-30T15:40:57.955Z,98287.23
2019-01-30T15:43:26.640Z,98287.75
2019-01-30T15:45:55.290Z,98297.81
2019-01-30T15:48:24.024Z,98294.92
2019-01-30T15:50:52.929Z,98308.56
2019-01-30T15:53:23.450Z,98331.25
2019-01-30T15:55:52.198Z,98323.61
2019-01-30T15:58:20.803Z,98335.56
2019-01-30T16:01:13.539Z,98338.39
2019-01-30T16:03:42.254Z,98341.59
2019-01-30T16:06:10.979Z,98359.90
2019-01-30T16:08:39.594Z,98362.86
2019-01-30T16:11:08.279Z,98360.52
2019-01-30T16:13:37.019Z,98371.00
2019-01-30T16:16:06.815Z,98370.14
2019-01-30T16:18:35.477Z,98375.97
2019-01-30T16:21:04.255Z,98378.66
2019-01-30T16:23:32.967Z,98382.16
2019-01-30T16:26:01.588Z,98387.27
2019-01-30T16:28:30.194Z,98394.78
2019-01-30T16:30:58.870Z,98396.78
2019-01-30T16:33:27.576Z,98402.88
2019-01-30T16:35:56.581Z,98409.73
2019-01-30T16:38:26.678Z,98420.19
2019-01-30T16:40:55.403Z,98425.66
2019-01-30T16:43:24.198Z,98429.72
2019-01-30T16:45:52.893Z,98434.99
2019-01-30T16:48:21.597Z,98437.82
2019-01-30T16:50:50.241Z,98440.39
2019-01-30T16:53:18.963Z,98453.75
2019-01-30T16:55:47.652Z,98452.94
2019-01-30T16:58:16.414Z,98462.28
2019-01-30T17:00:46.709Z,98464.42
2019-01-30T17:03:15.708Z,98471.42
2019-01-30T17:05:44.558Z,98469.28
2019-01-30T17:08:13.267Z,98480.27
2019-01-30T17:10:41.937Z,98491.67
2019-01-30T17:13:12.721Z,98490.14
2019-01-30T17:15:41.175Z,98498.97
2019-01-30T17:18:12.280Z,98500.84
2019-01-30T17:20:41.403Z,98506.24
2019-01-30T17:23:11.041Z,98513.16
2019-01-30T17:25:40.141Z,98518.48
2019-01-30T17:31:19.167Z,98527.12
2019-01-30T17:33:49.183Z,98529.19
2019-01-30T17:36:18.961Z,98530.34
2019-01-30T17:38:49.551Z,98537.75
2019-01-30T17:41:18.786Z,98541.03
2019-01-30T17:43:47.863Z,98545.52
2019-01-30T17:46:17.162Z,98543.45
2019-01-30T17:49:25.662Z,98544.84
2019-01-30T17:51:55.019Z,98550.70
2019-01-30T17:54:24.756Z,98554.84
2019-01-30T17:57:14.643Z,98554.89
2019-01-30T17:59:44.132Z,98557.14
2019-01-30T18:05:04.638Z,98564.98
2019-01-30T18:07:33.907Z,98565.48
2019-01-30T18:12:58.884Z,98568.34
2019-01-30T18:26:40.963Z,98582.12
2019-01-30T18:29:11.679Z,98584.59
2019-01-30T18:31:42.994Z,98583.13
2019-01-30T18:34:16.866Z,98589.28
2019-01-30T18:36:50.600Z,98591.13
2019-01-30T18:42:16.151Z,98609.47
2019-01-30T18:44:45.574Z,98602.69
2019-01-30T18:47:14.542Z,98611.18
2019-01-30T18:52:31.380Z,98603.61
2019-01-30T18:55:00.204Z,98606.55
2019-01-30T18:57:29.093Z,98611.33
2019-01-30T19:00:00.223Z,98604.59
2019-01-30T19:02:28.979Z,98611.09
2019-01-30T19:04:58.961Z,98614.00
2019-01-30T19:07:32.985Z,98624.40
2019-01-30T19:10:21.599Z,98627.12
2019-01-30T19:12:50.491Z,98628.16
2019-01-30T19:15:41.581Z,98621.36
2019-01-30T19:18:12.996Z,98628.83
2019-01-30T19:20:44.024Z,98627.08
2019-01-30T19:23:15.282Z,98631.91
2019-01-30T19:25:44.458Z,98626.64
2019-01-30T19:28:16.336Z,98636.44
2019-01-30T19:30:45.347Z,98644.19
2019-01-30T19:33:14.165Z,98645.95
2019-01-30T19:39:01.593Z,98653.61
2019-01-30T19:41:31.065Z,98652.92
2019-01-30T19:44:01.452Z,98660.91
2019-01-30T19:46:30.172Z,98661.95
2019-01-30T19:49:24.079Z,98654.42
2019-01-30T19:54:11.170Z,98663.66
2019-01-30T19:56:40.130Z,98673.69
2019-01-30T19:59:17.287Z,98659.45
2019-01-30T20:01:39.990Z,98675.75
2019-01-30T20:04:08.862Z,98673.50
2019-01-30T20:06:38.279Z,98677.25
2019-01-30T20:11:51.825Z,98682.88
2019-01-30T20:14:20.725Z,98678.83
2019-01-30T20:16:49.696Z,98685.20
2019-01-30T20:19:18.636Z,98682.83
2019-01-30T20:21:47.679Z,98695.69
2019-01-30T20:24:17.348Z,98696.64
2019-01-30T20:26:46.179Z,98701.91
2019-01-30T20:29:15.087Z,98707.51
2019-01-30T20:31:44.574Z,98712.32
2019-01-30T20:34:13.321Z,98715.14
2019-01-30T20:36:42.158Z,98715.63
2019-01-30T20:39:11.120Z,98724.92
2019-01-30T20:41:40.001Z,98731.50
2019-01-30T20:44:09.123Z,98732.90
2019-01-30T20:46:38.284Z,98731.05
2019-01-30T20:49:07.089Z,98741.52
2019-01-30T20:51:36.024Z,98737.00
2019-01-30T20:54:04.872Z,98742.64
2019-01-30T20:56:52.818Z,98743.47
2019-01-30T21:05:40.286Z,98748.73
2019-01-30T21:08:09.379Z,98747.57
2019-01-30T21:11:19.319Z,98752.31
2019-01-30T21:13:48.238Z,98756.11
2019-01-30T21:16:51.176Z,98755.17
2019-01-30T21:19:19.995Z,98756.48
2019-01-30T21:21:49.242Z,98754.87
2019-01-30T21:24:17.990Z,98754.95
2019-01-30T21:26:46.897Z,98761.11
2019-01-30T21:29:15.698Z,98764.02
2019-01-30T21:32:03.437Z,98767.81
2019-01-30T21:34:32.349Z,98758.59
2019-01-30T21:37:01.984Z,98773.91
2019-01-30T21:39:30.796Z,98776.76
2019-01-30T21:42:00.023Z,98777.77
2019-01-30T21:44:28.762Z,98770.81
2019-01-30T21:49:52.721Z,98773.08
2019-01-30T21:52:21.402Z,98776.24
2019-01-30T21:54:50.093Z,98780.67
2019-01-30T21:57:38.046Z,98781.28
2019-01-30T22:00:09.493Z,98792.86
2019-01-30T22:02:38.316Z,98789.45
2019-01-30T22:05:46.848Z,98792.19
2019-01-30T22:08:35.894Z,98786.25
2019-01-30T22:11:05.649Z,98786.70
2019-01-30T22:13:34.489Z,98791.66
2019-01-30T22:16:23.410Z,98787.03
2019-01-30T22:18:52.237Z,98786.39
2019-01-30T22:21:21.003Z,98792.30
2019-01-30T22:23:50.017Z,98788.17
2019-01-30T22:26:19.130Z,98789.16
2019-01-30T22:28:48.082Z,98793.08
2019-01-30T22:31:16.847Z,98786.05
2019-01-30T22:33:45.713Z,98795.39
2019-01-30T22:36:33.609Z,98792.89
2019-01-30T22:41:38.695Z,98788.86
2019-01-30T22:44:07.538Z,98795.13
2019-01-30T22:46:36.168Z,98793.94
2019-01-30T22:49:05.124Z,98793.80
2019-01-30T22:51:33.870Z,98798.19
2019-01-30T22:54:02.541Z,98799.45
2019-01-30T22:56:31.341Z,98796.54
2019-01-30T22:59:00.032Z,98799.02
2019-01-30T23:01:55.713Z,98804.73
2019-01-30T23:04:36.673Z,98797.88
2019-01-30T23:07:44.053Z,98799.81
2019-01-30T23:10:34.631Z,98813.08
2019-01-30T23:13:43.402Z,98808.67
2019-01-30T23:16:50.955Z,98802.73
2019-01-30T23:19:50.918Z,98807.50
2019-01-30T23:22:58.091Z,98804.50
2019-01-30T23:26:05.724Z,98806.36
2019-01-30T23:29:12.904Z,98807.69
2019-01-30T23:32:06.278Z,98802.28
2019-01-30T23:35:02.224Z,98803.63
2019-01-30T23:38:09.932Z,98805.05
2019-01-30T23:44:02.020Z,98808.27
2019-01-30T23:47:09.267Z,98804.00
2019-01-30T23:50:26.811Z,98803.48
2019-01-30T23:53:34.005Z,98799.55
2019-01-30T23:59:47.015Z,98796.46
